Time;durP1;ratioP1;P1;durP2;ratioP2;P2;SDS_P1;SDS_P2;PMS_P1;PMS_P2;Temp;Humidity;BMP_temperature;BMP_pressure;BME280_temperature;BME280_humidity;BME280_pressure;Samples;Min_cycle;Max_cycle;Signal;HPM_P1;HPM_P2
2022/08/12 00:45:08;;;;;;;9.13;5.50;;;;;;;16.92;100.00;100971.03;7386773;19;20378;-59
2022/08/12 00:47:41;;;;;;;7.27;3.77;;;;;;;16.92;100.00;100965.81;7399501;19;20389;-59
2022/08/12 00:50:17;;;;;;;10.40;5.97;;;;;;;16.84;100.00;100963.06;7392177;19;20936;-59
2022/08/12 00:52:47;;;;;;;12.83;7.07;;;;;;;16.92;100.00;100958.84;7400350;19;20393;-59
2022/08/12 00:55:18;;;;;;;6.40;3.67;;;;;;;16.83;100.00;100967.38;7394075;19;20387;-59
2022/08/12 00:57:50;;;;;;;8.33;3.50;;;;;;;16.80;100.00;100962.13;7400224;19;20721;-59
2022/08/12 01:00:22;;;;;;;7.10;3.97;;;;;;;16.78;100.00;100963.84;7391644;19;20438;-59
2022/08/12 01:02:57;;;;;;;7.53;3.20;;;;;;;16.65;100.00;100967.00;7399981;19;20459;-59
2022/08/12 01:13:43;;;;;;;4.50;2.93;;;;;;;16.77;100.00;100955.97;7399857;19;20460;-59
2022/08/12 01:16:13;;;;;;;5.07;2.83;;;;;;;16.72;100.00;100958.50;7393271;19;20426;-59
2022/08/12 01:18:46;;;;;;;8.33;4.27;;;;;;;16.74;100.00;100959.41;7398916;19;20387;-59
2022/08/12 01:21:29;;;;;;;7.93;3.30;;;;;;;16.63;100.00;100953.97;7391015;19;20419;-59
2022/08/12 01:24:08;;;;;;;5.30;2.43;;;;;;;16.50;100.00;100951.97;7399406;19;20408;-59
2022/08/12 01:27:02;;;;;;;8.03;4.13;;;;;;;16.42;100.00;100944.00;7389101;19;20442;-59
2022/08/12 01:29:40;;;;;;;11.27;7.10;;;;;;;16.38;100.00;100914.44;7397409;19;20919;-59
2022/08/12 01:32:13;;;;;;;6.07;3.50;;;;;;;16.35;100.00;100916.09;7393441;19;20408;-58
2022/08/12 01:37:27;;;;;;;7.10;3.57;;;;;;;16.39;100.00;100917.88;7396255;19;20981;-59
2022/08/12 01:39:59;;;;;;;5.77;3.20;;;;;;;16.17;100.00;100922.66;7396409;19;20438;-59
2022/08/12 01:42:53;;;;;;;9.30;5.80;;;;;;;16.16;100.00;100915.72;7398216;19;20418;-59
2022/08/12 01:45:24;;;;;;;25.50;13.30;;;;;;;16.00;100.00;100911.91;7391475;19;20410;-59
2022/08/12 01:48:05;;;;;;;16.37;9.53;;;;;;;16.04;100.00;100895.47;7398498;19;20382;-59
2022/08/12 01:50:38;;;;;;;11.80;6.83;;;;;;;16.06;100.00;100899.88;7388841;19;20488;-59
2022/08/12 01:53:14;;;;;;;11.77;6.33;;;;;;;16.19;100.00;100901.03;7395766;19;20458;-59
2022/08/12 01:55:47;;;;;;;6.83;3.73;;;;;;;16.15;100.00;100903.53;7390574;19;20480;-58
2022/08/12 01:58:26;;;;;;;14.93;6.00;;;;;;;16.13;100.00;100910.41;7395125;19;20742;-59
2022/08/12 02:00:57;;;;;;;16.83;6.80;;;;;;;16.15;100.00;100914.81;7387496;19;20547;-59
2022/08/12 02:12:05;;;;;;;10.40;3.23;;;;;;;16.12;100.00;100934.69;7389211;19;20424;-59
2022/08/12 02:14:53;;;;;;;7.50;3.20;;;;;;;16.02;100.00;100934.50;7395440;19;20394;-59
2022/08/12 02:17:31;;;;;;;7.60;3.57;;;;;;;16.05;100.00;100934.56;7382243;19;20408;-59
2022/08/12 02:20:30;;;;;;;9.93;4.00;;;;;;;16.08;100.00;100928.53;7386789;19;20402;-60
2022/08/12 02:23:21;;;;;;;121.03;75.43;;;;;;;16.31;100.00;100926.44;7394752;19;20384;-59
2022/08/12 02:25:54;;;;;;;10.40;5.93;;;;;;;16.33;100.00;100937.78;7389359;19;20434;-58
2022/08/12 02:28:24;;;;;;;10.90;6.43;;;;;;;16.21;100.00;100940.13;7394576;19;20449;-59
2022/08/12 02:30:57;;;;;;;36.23;22.43;;;;;;;16.27;100.00;100940.25;7387310;19;20424;-59
2022/08/12 02:33:26;;;;;;;65.50;31.10;;;;;;;16.29;100.00;100953.28;7398401;19;20433;-59
2022/08/12 02:35:56;;;;;;;28.73;14.90;;;;;;;16.34;100.00;100959.47;7388032;19;20419;-58
2022/08/12 02:38:28;;;;;;;21.60;13.00;;;;;;;16.35;100.00;100957.75;7394095;19;20392;-59
2022/08/12 02:40:59;;;;;;;28.33;15.03;;;;;;;16.29;100.00;100961.06;7386004;19;20758;-56
2022/08/12 02:43:34;;;;;;;12.10;6.00;;;;;;;16.11;100.00;100959.84;7394525;19;20396;-59
2022/08/12 02:46:07;;;;;;;21.23;8.97;;;;;;;16.05;100.00;100957.97;7385784;19;20408;-59
2022/08/12 02:48:53;;;;;;;15.20;8.10;;;;;;;16.12;100.00;100948.59;7252840;19;2763689;-58
2022/08/12 02:51:25;;;;;;;21.67;7.20;;;;;;;16.05;100.00;100947.56;7390569;19;20199;-58
2022/08/12 02:53:56;;;;;;;10.53;5.57;;;;;;;16.04;100.00;100943.22;7396608;19;20396;-58
2022/08/12 02:56:36;;;;;;;9.23;4.90;;;;;;;15.98;100.00;100945.69;7385737;19;20945;-59
2022/08/12 02:59:10;;;;;;;5.87;3.83;;;;;;;16.01;100.00;100945.72;7397875;19;20949;-59
2022/08/12 03:01:48;;;;;;;13.30;4.00;;;;;;;15.97;100.00;100945.63;7389779;19;20436;-59
2022/08/12 03:04:28;;;;;;;5.43;3.17;;;;;;;15.85;100.00;100952.28;7396111;19;20380;-58
2022/08/12 03:07:06;;;;;;;11.30;5.03;;;;;;;15.93;100.00;100949.91;7389044;19;20430;-59
2022/08/12 03:09:41;;;;;;;10.20;4.40;;;;;;;16.01;100.00;100948.34;7392691;19;21159;-59
2022/08/12 03:12:33;;;;;;;6.80;4.63;;;;;;;15.96;100.00;100955.19;7395219;19;20417;-59
2022/08/12 03:15:08;;;;;;;12.43;4.50;;;;;;;15.88;100.00;100961.88;7389369;19;20395;-59
2022/08/12 03:17:53;;;;;;;5.90;3.57;;;;;;;15.76;100.00;100952.09;7395321;19;20732;-59
2022/08/12 03:20:44;;;;;;;6.03;2.90;;;;;;;15.71;100.00;100949.38;7388063;19;20433;-59
2022/08/12 03:23:16;;;;;;;7.73;3.50;;;;;;;15.69;100.00;100943.25;7395132;19;20399;-59
2022/08/12 03:26:00;;;;;;;4.50;2.50;;;;;;;15.60;100.00;100943.03;7388828;19;20494;-58
2022/08/12 03:31:14;;;;;;;6.30;3.93;;;;;;;15.47;100.00;100934.94;7388306;19;20958;-59
2022/08/12 03:33:48;;;;;;;9.17;5.13;;;;;;;15.48;100.00;100928.91;7395217;19;20398;-59
2022/08/12 03:36:33;;;;;;;21.17;11.97;;;;;;;15.48;100.00;100928.03;7389063;19;20421;-59
2022/08/12 03:39:32;;;;;;;21.20;10.13;;;;;;;15.53;100.00;100923.78;7393803;19;20398;-59
2022/08/12 03:42:10;;;;;;;72.80;35.67;;;;;;;15.53;100.00;100919.50;7387322;19;20526;-58
2022/08/12 04:01:00;;;;;;;8.33;5.23;;;;;;;15.41;100.00;100907.91;7386583;19;20441;-60
2022/08/12 04:06:15;;;;;;;11.50;4.37;;;;;;;15.43;100.00;100901.91;7388555;19;20441;-59
2022/08/12 04:09:05;;;;;;;9.47;3.93;;;;;;;15.41;100.00;100911.41;7392685;19;20418;-59
2022/08/12 04:14:29;;;;;;;6.90;3.70;;;;;;;15.47;100.00;100903.75;7393803;19;20402;-59
2022/08/12 04:16:59;;;;;;;7.67;4.60;;;;;;;15.42;100.00;100913.16;7388438;19;20416;-59
2022/08/12 04:19:29;;;;;;;14.43;6.87;;;;;;;15.36;100.00;100905.19;7391814;19;20422;-58
2022/08/12 04:22:02;;;;;;;16.13;9.00;;;;;;;15.33;100.00;100905.13;7385895;19;20444;-59
2022/08/12 04:24:33;;;;;;;12.00;6.90;;;;;;;15.32;100.00;100895.56;7395363;19;20394;-59
2022/08/12 04:27:04;;;;;;;12.63;7.47;;;;;;;15.23;100.00;100894.50;7387538;19;20414;-59
2022/08/12 04:29:36;;;;;;;21.67;11.10;;;;;;;15.25;100.00;100898.03;7392065;19;20431;-59
2022/08/12 04:32:25;;;;;;;16.50;8.73;;;;;;;15.28;100.00;100904.13;7392919;19;20426;-59
2022/08/12 04:34:56;;;;;;;17.90;8.90;;;;;;;15.41;100.00;100895.78;7393222;19;20459;-59
2022/08/12 04:37:28;;;;;;;13.10;7.67;;;;;;;15.51;100.00;100900.38;7392289;19;20418;-59
2022/08/12 04:40:18;;;;;;;15.07;8.17;;;;;;;15.43;100.00;100901.91;7384725;19;20538;-59
2022/08/12 04:42:57;;;;;;;17.37;9.20;;;;;;;15.42;100.00;100907.09;7391064;19;20738;-59
2022/08/12 04:45:26;;;;;;;12.07;6.20;;;;;;;15.47;100.00;100906.34;7386128;19;20421;-59
2022/08/12 04:47:56;;;;;;;14.10;7.93;;;;;;;15.53;100.00;100903.88;7392744;19;20400;-60
2022/08/12 04:50:27;;;;;;;14.13;7.10;;;;;;;15.56;100.00;100908.28;7377934;19;20419;-59
2022/08/12 04:53:08;;;;;;;9.20;5.20;;;;;;;15.63;100.00;100906.69;7394182;19;20418;-59
2022/08/12 04:55:39;;;;;;;6.40;4.40;;;;;;;15.61;100.00;100910.97;7387008;19;20414;-59
2022/08/12 04:58:09;;;;;;;8.43;4.50;;;;;;;15.62;100.00;100910.13;7392028;19;20386;-58
2022/08/12 05:00:39;;;;;;;8.90;3.73;;;;;;;15.62;100.00;100903.22;7384422;19;20420;-58
2022/08/12 05:03:12;;;;;;;7.90;4.07;;;;;;;15.67;100.00;100900.72;7392545;19;20382;-59
2022/08/12 05:05:42;;;;;;;6.10;3.63;;;;;;;15.76;100.00;100906.16;7386335;19;20428;-59
2022/08/12 05:08:17;;;;;;;7.60;3.30;;;;;;;15.79;100.00;100914.00;7392017;19;20381;-58
2022/08/12 05:10:47;;;;;;;7.77;3.67;;;;;;;15.85;100.00;100912.41;7384258;19;20403;-59
2022/08/12 05:13:18;;;;;;;5.60;3.40;;;;;;;15.89;100.00;100916.84;7392086;19;20382;-59
2022/08/12 05:15:48;;;;;;;6.20;4.10;;;;;;;15.83;100.00;100917.56;7386591;19;20495;-59
2022/08/12 05:18:34;;;;;;;9.57;2.97;;;;;;;15.81;100.00;100919.25;7391492;19;20461;-58
2022/08/12 05:21:08;;;;;;;7.97;3.47;;;;;;;15.85;100.00;100920.19;7386034;19;20512;-59
2022/08/12 05:23:42;;;;;;;4.83;3.10;;;;;;;15.86;100.00;100924.56;7391949;19;20378;-59
2022/08/12 05:26:12;;;;;;;8.07;3.43;;;;;;;15.93;100.00;100923.88;7386168;19;20426;-59
2022/08/12 05:28:42;;;;;;;5.57;3.30;;;;;;;16.03;100.00;100930.16;7391261;19;20385;-59
2022/08/12 05:31:11;;;;;;;6.27;2.87;;;;;;;16.10;100.00;100925.97;7387168;19;20426;-60
2022/08/12 05:33:44;;;;;;;7.60;3.43;;;;;;;16.12;100.00;100927.78;7398831;19;20393;-59
2022/08/12 05:36:16;;;;;;;4.97;3.17;;;;;;;16.11;100.00;100936.44;7391860;19;20410;-59
2022/08/12 05:38:58;;;;;;;7.50;2.90;;;;;;;16.14;100.00;100944.28;7397496;19;20391;-57
2022/08/12 05:41:30;;;;;;;7.03;3.33;;;;;;;16.16;100.00;100952.16;7391902;19;20428;-59
2022/08/12 05:44:01;;;;;;;5.70;3.40;;;;;;;16.19;100.00;100947.00;7398448;19;20389;-59
2022/08/12 05:46:32;;;;;;;7.43;2.67;;;;;;;16.24;100.00;100952.31;7391728;19;20421;-59
2022/08/12 05:49:02;;;;;;;10.23;3.30;;;;;;;16.26;100.00;100950.63;7397326;19;20395;-59
2022/08/12 05:51:33;;;;;;;10.07;3.17;;;;;;;16.34;100.00;100962.06;7391906;19;20427;-59
2022/08/12 05:54:13;;;;;;;8.60;3.63;;;;;;;16.39;100.00;100947.41;7400607;19;20409;-59
2022/08/12 05:56:42;;;;;;;6.40;3.43;;;;;;;16.46;100.00;100957.09;7392114;19;20425;-59
2022/08/12 05:59:13;;;;;;;6.63;3.40;;;;;;;16.53;100.00;100957.25;7396779;19;20398;-59
2022/08/12 06:01:44;;;;;;;6.77;3.30;;;;;;;16.58;100.00;100961.72;7389968;19;20447;-60
2022/08/12 06:04:34;;;;;;;4.73;3.07;;;;;;;16.67;100.00;100973.16;7396954;19;20382;-59
2022/08/12 06:07:07;;;;;;;6.83;3.00;;;;;;;16.71;100.00;100968.03;7393422;19;20455;-59
2022/08/12 06:09:59;;;;;;;6.70;3.30;;;;;;;16.82;100.00;100978.66;7394192;19;20437;-58
2022/08/12 06:12:29;;;;;;;38.90;18.07;;;;;;;16.93;100.00;100986.69;7395820;19;20456;-59
2022/08/12 06:15:00;;;;;;;8.50;3.10;;;;;;;17.00;100.00;100991.19;7397662;19;20381;-61
2022/08/12 06:17:30;;;;;;;8.03;3.50;;;;;;;17.09;100.00;101040.03;7396778;19;20820;-59
2022/08/12 06:20:00;;;;;;;8.90;3.13;;;;;;;17.21;100.00;101051.50;7390521;19;20397;-59
2022/08/12 06:22:50;;;;;;;7.53;3.53;;;;;;;17.32;100.00;101078.69;7395693;19;20409;-57
2022/08/12 06:25:28;;;;;;;17.40;7.27;;;;;;;17.38;100.00;101085.75;7391894;19;20401;-58
2022/08/12 06:27:58;;;;;;;21.30;8.10;;;;;;;17.49;100.00;101099.00;7400598;19;20731;-59
2022/08/12 06:30:37;;;;;;;11.93;4.10;;;;;;;17.58;100.00;101114.78;7387920;19;20426;-59
2022/08/12 06:33:08;;;;;;;26.20;11.47;;;;;;;17.62;100.00;101119.22;7396708;19;20392;-59
2022/08/12 06:35:50;;;;;;;8.60;4.30;;;;;;;17.71;100.00;101130.69;7390565;19;20921;-58
2022/08/12 06:38:21;;;;;;;8.60;4.37;;;;;;;17.90;100.00;101131.91;7395604;19;20387;-58
2022/08/12 06:43:38;;;;;;;13.00;9.13;;;;;;;18.20;100.00;101165.50;7391620;19;20383;-58
2022/08/12 06:46:29;;;;;;;36.50;22.33;;;;;;;18.36;100.00;101184.06;7389947;19;20407;-59
2022/08/12 06:49:00;;;;;;;12.70;8.37;;;;;;;18.46;100.00;101201.59;7395456;19;20936;-60
2022/08/12 06:51:31;;;;;;;36.60;23.40;;;;;;;18.54;100.00;101220.03;7390194;19;20429;-59
2022/08/12 06:54:01;;;;;;;14.13;7.60;;;;;;;18.58;100.00;101236.63;7396040;19;20406;-59
2022/08/12 06:56:35;;;;;;;7.53;4.80;;;;;;;18.66;100.00;101242.00;7390157;19;20411;-59
2022/08/12 06:59:24;;;;;;;8.10;4.00;;;;;;;18.70;100.00;101247.28;7394524;19;20423;-58
2022/08/12 07:01:54;;;;;;;6.10;3.17;;;;;;;18.72;100.00;101256.00;7388677;19;20425;-59
2022/08/12 07:04:23;;;;;;;5.93;3.13;;;;;;;18.81;100.00;101257.03;7399792;19;20742;-59
2022/08/12 07:07:05;;;;;;;10.30;3.93;;;;;;;18.92;100.00;101258.06;7390391;19;20422;-59
2022/08/12 07:09:38;;;;;;;6.50;3.70;;;;;;;19.02;100.00;101257.38;7394363;19;20423;-59
2022/08/12 07:12:30;;;;;;;7.37;3.63;;;;;;;19.17;100.00;101263.69;7395220;19;20427;-59
2022/08/12 07:15:01;;;;;;;6.47;3.53;;;;;;;19.32;100.00;101276.09;7389866;19;20398;-60
2022/08/12 07:17:34;;;;;;;8.77;5.10;;;;;;;19.40;100.00;101281.44;7395189;19;20418;-59
2022/08/12 07:20:08;;;;;;;11.90;3.13;;;;;;;19.50;100.00;101279.81;7389282;19;20440;-59
2022/08/12 07:22:40;;;;;;;5.90;3.20;;;;;;;19.55;100.00;101275.53;7394578;19;20736;-59
2022/08/12 07:28:00;;;;;;;10.83;4.17;;;;;;;19.71;100.00;101294.91;7394854;19;20388;-60
2022/08/12 07:30:39;;;;;;;11.40;3.87;;;;;;;19.87;100.00;101308.19;7387842;19;20474;-59
2022/08/12 07:33:10;;;;;;;125.67;82.63;;;;;;;19.97;100.00;101323.19;7395194;19;20375;-59
2022/08/12 07:35:44;;;;;;;25.67;12.67;;;;;;;20.05;100.00;101323.28;7387280;19;20419;-59
2022/08/12 07:38:26;;;;;;;16.30;10.00;;;;;;;20.19;100.00;101315.56;7394110;19;20743;-59
2022/08/12 07:41:04;;;;;;;17.40;8.37;;;;;;;20.26;100.00;101309.53;7387237;19;20747;-59
2022/08/12 07:43:38;;;;;;;8.73;4.90;;;;;;;20.36;100.00;101361.16;7393623;19;20728;-59
2022/08/12 07:46:10;;;;;;;7.00;4.17;;;;;;;20.51;100.00;101370.06;7386272;19;20423;-57
2022/08/12 07:48:42;;;;;;;5.97;3.60;;;;;;;20.59;100.00;101384.09;7393390;19;20387;-58
2022/08/12 07:51:12;;;;;;;6.87;3.77;;;;;;;20.67;100.00;101402.53;7386932;19;20407;-59
2022/08/12 07:53:54;;;;;;;11.40;5.37;;;;;;;20.75;100.00;101410.47;7393004;19;20431;-59
2022/08/12 07:56:32;;;;;;;6.40;3.20;;;;;;;20.81;100.00;101405.28;7387287;19;20417;-58
2022/08/12 07:59:07;;;;;;;20.10;7.00;;;;;;;20.86;100.00;101393.13;7397256;19;20772;-59
2022/08/12 08:01:38;;;;;;;9.93;3.23;;;;;;;20.93;100.00;101408.91;7389378;19;20775;-59
2022/08/12 08:06:51;;;;;;;12.97;3.50;;;;;;;21.14;100.00;101445.84;7385133;19;20411;-57
2022/08/12 08:09:23;;;;;;;7.20;3.17;;;;;;;21.27;100.00;101464.31;7392604;19;20422;-60
2022/08/12 08:14:39;;;;;;;6.60;2.57;;;;;;;21.47;100.00;101480.19;7394124;19;20402;-59
2022/08/12 08:17:09;;;;;;;8.57;3.43;;;;;;;21.60;100.00;101486.44;7387840;19;20412;-58
2022/08/12 08:19:38;;;;;;;32.17;21.93;;;;;;;21.74;100.00;101501.44;7394312;19;20770;-59
2022/08/12 08:22:28;;;;;;;24.73;16.60;;;;;;;21.86;100.00;101501.53;7392998;19;20815;-59
2022/08/12 08:25:10;;;;;;;8.27;4.13;;;;;;;21.95;100.00;101498.94;7378673;19;20383;-59
2022/08/12 08:28:01;;;;;;;16.70;6.80;;;;;;;22.07;100.00;101507.75;7393200;19;20403;-59
2022/08/12 08:30:34;;;;;;;13.83;5.73;;;;;;;22.18;100.00;101495.56;7386734;19;20415;-59
2022/08/12 08:33:04;;;;;;;8.10;2.90;;;;;;;22.28;100.00;101517.53;7393343;19;20383;-59
2022/08/12 08:35:54;;;;;;;8.33;2.87;;;;;;;22.43;100.00;101540.38;7386519;19;20949;-59
2022/08/12 08:38:24;;;;;;;6.80;3.13;;;;;;;22.58;100.00;101565.91;7392422;19;20857;-59
2022/08/12 08:44:06;;;;;;;9.00;3.13;;;;;;;22.81;100.00;101569.47;7391936;19;20375;-58
2022/08/12 08:46:38;;;;;;;9.90;4.70;;;;;;;22.88;100.00;101571.25;7386957;19;20408;-58
2022/08/12 08:49:08;;;;;;;9.03;3.03;;;;;;;23.02;100.00;101580.06;7391769;19;20728;-59
2022/08/12 08:51:38;;;;;;;13.10;8.47;;;;;;;23.14;100.00;101599.41;7385681;19;20406;-59
2022/08/12 08:54:10;;;;;;;6.50;3.90;;;;;;;23.25;100.00;101594.16;7392458;19;20470;-59
2022/08/12 08:56:48;;;;;;;9.23;3.80;;;;;;;23.37;100.00;101586.31;7385210;19;20522;-59
2022/08/12 08:59:21;;;;;;;8.90;4.27;;;;;;;23.52;100.00;101590.72;7391493;19;20418;-59
2022/08/12 09:01:53;;;;;;;7.37;3.83;;;;;;;23.63;100.00;101613.56;7386708;19;20411;-59
2022/08/12 09:04:22;;;;;;;4.60;2.80;;;;;;;23.71;100.00;101624.97;7391064;19;20387;-59
2022/08/12 09:07:12;;;;;;;5.50;3.40;;;;;;;23.81;100.00;101618.84;7386726;19;20788;-60
2022/08/12 09:10:01;;;;;;;6.00;3.20;;;;;;;23.95;100.00;101605.63;7387439;19;20415;-59
2022/08/12 09:15:23;;;;;;;6.13;2.40;;;;;;;24.13;100.00;101624.97;7393349;19;20407;-59
2022/08/12 09:18:09;;;;;;;11.70;3.13;;;;;;;24.26;100.00;101636.41;7403671;19;20399;-59
2022/08/12 09:20:40;;;;;;;6.60;2.53;;;;;;;24.47;100.00;101632.84;7395056;19;20410;-59
2022/08/12 09:23:12;;;;;;;7.30;3.20;;;;;;;24.62;100.00;101638.94;7402205;19;20416;-58
2022/08/12 09:26:02;;;;;;;7.00;4.87;;;;;;;24.66;100.00;101645.97;7393083;19;20414;-59
2022/08/12 09:28:52;;;;;;;74.43;44.23;;;;;;;24.73;100.00;101644.19;7398619;19;20379;-59
2022/08/12 09:31:22;;;;;;;6.83;3.33;;;;;;;24.87;100.00;101642.41;7392646;19;20761;-60
2022/08/12 09:34:16;;;;;;;5.47;2.80;;;;;;;25.04;100.00;101649.38;7398907;19;20388;-59
2022/08/12 09:36:58;;;;;;;24.67;13.33;;;;;;;25.12;100.00;101663.41;7392705;19;20433;-59
2022/08/12 09:39:31;;;;;;;16.80;8.13;;;;;;;25.20;100.00;101669.53;7397006;19;20820;-60
2022/08/12 09:45:32;;;;;;;8.50;3.37;;;;;;;25.56;100.00;101681.69;7384642;19;20415;-60
2022/08/12 09:48:22;;;;;;;5.90;2.73;;;;;;;25.68;100.00;101671.03;7397532;19;20398;-59
2022/08/12 09:50:54;;;;;;;5.30;2.90;;;;;;;25.72;100.00;101671.88;7390966;19;20421;-59
2022/08/12 09:53:30;;;;;;;13.43;6.43;;;;;;;25.77;100.00;101669.22;7398276;19;20909;-60
2022/08/12 09:56:12;;;;;;;7.13;3.30;;;;;;;25.86;100.00;101679.72;7392465;19;20410;-60
2022/08/12 09:59:03;;;;;;;11.20;2.60;;;;;;;26.03;100.00;101687.50;7397460;19;20408;-59
2022/08/12 10:01:33;;;;;;;7.47;3.20;;;;;;;26.08;100.00;101695.38;7384497;19;20407;-60
2022/08/12 10:04:22;;;;;;;6.77;2.43;;;;;;;26.19;100.00;101697.97;7397307;19;20914;-59
2022/08/12 10:06:55;;;;;;;5.50;3.40;;;;;;;26.26;100.00;101695.25;7391657;19;20942;-59
2022/08/12 10:09:26;;;;;;;8.83;4.13;;;;;;;26.35;100.00;101689.00;7396297;19;20411;-60
2022/08/12 10:15:13;;;;;;;11.00;2.60;;;;;;;26.71;92.65;101698.34;7391914;19;20384;-59
2022/08/12 10:18:04;;;;;;;3.97;2.20;;;;;;;26.82;92.62;101696.47;7397012;19;20384;-60
2022/08/12 10:20:36;;;;;;;7.23;3.43;;;;;;;26.97;96.61;101692.78;7390350;19;20419;-59
2022/08/12 10:23:08;;;;;;;6.73;3.20;;;;;;;26.99;90.63;101688.34;7397485;19;20386;-59
2022/08/12 10:31:31;;;;;;;9.87;5.37;;;;;;;27.14;90.54;101679.34;7389781;19;20431;-59
2022/08/12 10:34:22;;;;;;;11.47;4.27;;;;;;;27.15;83.70;101680.19;7397072;19;20423;-59
2022/08/12 10:36:58;;;;;;;4.93;2.63;;;;;;;27.26;84.17;101678.28;7390075;19;20778;-59
2022/08/12 10:39:50;;;;;;;5.40;2.93;;;;;;;27.50;81.81;101678.84;7394975;19;20739;-59
2022/08/12 10:45:22;;;;;;;5.30;2.50;;;;;;;27.68;76.58;101664.44;7387454;19;20421;-60
2022/08/12 10:47:52;;;;;;;6.23;2.70;;;;;;;27.85;77.16;101666.84;7396630;19;20392;-60
2022/08/12 10:50:41;;;;;;;4.27;2.30;;;;;;;27.80;73.15;101658.09;7389102;19;20410;-59
2022/08/12 10:53:31;;;;;;;6.10;2.80;;;;;;;27.77;75.67;101652.81;7396273;19;20903;-59
2022/08/12 10:56:21;;;;;;;6.30;2.80;;;;;;;28.09;75.08;101648.75;7389112;19;20411;-59
2022/08/12 10:58:51;;;;;;;6.70;2.80;;;;;;;28.12;72.75;101643.41;7395434;19;20419;-59
2022/08/12 11:01:22;;;;;;;27.30;15.83;;;;;;;28.17;76.29;101648.63;7391542;19;20431;-60
2022/08/12 11:04:12;;;;;;;8.93;5.23;;;;;;;28.30;71.73;101642.19;7395571;19;20415;-59
2022/08/12 11:07:02;;;;;;;5.00;2.63;;;;;;;28.34;77.03;101637.72;7389800;19;20422;-59
2022/08/12 11:09:52;;;;;;;4.50;2.50;;;;;;;28.54;74.73;101639.09;7394612;19;20404;-60
2022/08/12 11:12:39;;;;;;;8.50;4.57;;;;;;;28.43;72.60;101636.66;7394492;19;20431;-59
2022/08/12 11:15:28;;;;;;;55.50;31.37;;;;;;;28.53;78.32;101632.94;7389372;19;20452;-60
2022/08/12 11:18:18;;;;;;;9.17;4.03;;;;;;;28.52;73.64;101630.31;7395021;19;20384;-60
2022/08/12 11:20:49;;;;;;;7.60;3.60;;;;;;;28.58;73.42;101635.47;7389966;19;20407;-60
2022/08/12 11:23:20;;;;;;;4.30;2.40;;;;;;;28.69;68.17;101625.53;7395421;19;20386;-60
2022/08/12 11:26:06;;;;;;;6.70;2.70;;;;;;;28.69;67.17;101640.56;7389104;19;21124;-59
2022/08/12 11:28:39;;;;;;;3.80;1.97;;;;;;;28.75;66.25;101640.44;7393241;19;20399;-59
2022/08/12 11:31:11;;;;;;;6.50;2.80;;;;;;;28.77;61.36;101640.41;7386903;19;20421;-59
2022/08/12 11:33:43;;;;;;;7.57;3.80;;;;;;;28.52;62.83;101633.84;7395256;19;20388;-60
2022/08/12 11:36:33;;;;;;;7.17;2.80;;;;;;;28.67;65.41;101635.28;7388187;19;20411;-59
2022/08/12 11:39:09;;;;;;;6.13;2.50;;;;;;;28.78;66.32;101621.81;7394003;19;20399;-59
2022/08/12 11:41:41;;;;;;;5.53;2.33;;;;;;;28.86;64.17;101629.63;7388448;19;20423;-59
2022/08/12 11:44:14;;;;;;;5.30;2.30;;;;;;;29.02;60.97;101624.00;7394510;19;20406;-59
2022/08/12 11:47:03;;;;;;;8.00;3.63;;;;;;;28.96;59.10;101619.66;7385013;19;20438;-60
2022/08/12 11:49:38;;;;;;;6.63;2.53;;;;;;;28.86;58.26;101623.47;7393642;19;20470;-59
2022/08/12 11:52:07;;;;;;;8.33;2.40;;;;;;;28.78;56.77;101616.50;7385345;19;20430;-58
2022/08/12 11:54:57;;;;;;;4.40;2.23;;;;;;;28.80;59.70;101611.13;7393381;19;20379;-59
2022/08/12 11:57:29;;;;;;;6.30;3.17;;;;;;;28.87;63.50;101619.88;7392387;19;20417;-60
2022/08/12 12:00:21;;;;;;;4.23;2.30;;;;;;;28.97;52.89;101614.34;7387994;19;21081;-60
2022/08/12 12:03:11;;;;;;;6.00;2.73;;;;;;;29.13;52.02;101624.63;7394469;19;20384;-60
2022/08/12 12:05:45;;;;;;;6.80;3.00;;;;;;;29.23;53.90;101622.63;7386771;19;20425;-59
2022/08/12 12:08:22;;;;;;;4.97;2.60;;;;;;;29.23;52.52;101620.84;7392865;19;20402;-59
2022/08/12 12:11:10;;;;;;;8.10;2.40;;;;;;;29.28;52.94;101612.78;7388258;19;20415;-60
2022/08/12 12:13:40;;;;;;;8.00;4.40;;;;;;;29.40;52.54;101618.69;7393772;19;20388;-59
2022/08/12 12:16:32;;;;;;;7.47;4.17;;;;;;;29.47;53.79;101605.25;7388031;19;20423;-59
2022/08/12 12:19:07;;;;;;;4.60;2.70;;;;;;;29.26;46.11;101603.94;7392212;19;20411;-60
2022/08/12 12:21:39;;;;;;;5.07;2.00;;;;;;;29.27;47.24;101602.19;7387572;19;20755;-60
2022/08/12 12:24:17;;;;;;;6.33;2.47;;;;;;;29.18;50.63;101601.50;7393570;19;20402;-61
2022/08/12 12:26:51;;;;;;;5.00;2.50;;;;;;;29.63;50.09;101602.22;7383249;19;20446;-59
2022/08/12 12:29:29;;;;;;;6.07;2.40;;;;;;;29.86;49.58;101593.66;7392144;19;20411;-60
2022/08/12 12:32:21;;;;;;;3.63;1.87;;;;;;;29.94;45.33;101587.25;7386956;19;20438;-60
2022/08/12 12:34:59;;;;;;;5.37;2.60;;;;;;;30.23;44.31;101591.78;7389289;19;20969;-61
2022/08/12 12:37:55;;;;;;;7.03;2.37;;;;;;;30.57;43.48;101588.19;7396094;19;20438;-60
2022/08/12 12:40:41;;;;;;;6.13;2.30;;;;;;;30.63;43.57;101594.22;7386985;19;20431;-59
2022/08/12 12:43:13;;;;;;;6.27;4.50;;;;;;;30.97;42.95;101577.25;7400588;19;20391;-60
2022/08/12 12:45:43;;;;;;;7.17;3.27;;;;;;;31.41;41.88;101570.56;7392470;19;20414;-60
2022/08/12 12:48:18;;;;;;;5.57;3.47;;;;;;;31.51;41.99;101563.97;7400074;19;20475;-60
2022/08/12 12:51:14;;;;;;;6.43;2.57;;;;;;;32.08;41.40;101566.47;7391108;19;20429;-60
2022/08/12 12:53:41;;;;;;;4.77;2.30;;;;;;;32.19;37.70;101558.94;7400023;19;20395;-60
2022/08/12 12:56:31;;;;;;;5.10;2.37;;;;;;;32.25;38.66;101562.31;7393374;19;20764;-60
2022/08/12 12:59:04;;;;;;;5.90;2.13;;;;;;;32.34;39.48;101561.94;7399181;19;20372;-60
2022/08/12 13:01:37;;;;;;;4.60;2.70;;;;;;;32.38;38.91;101566.25;7394040;19;20494;-60
2022/08/12 13:04:13;;;;;;;5.07;2.50;;;;;;;32.59;37.37;101569.06;7400133;19;20379;-58
2022/08/12 13:06:43;;;;;;;5.23;3.10;;;;;;;32.68;37.04;101558.03;7392989;19;20457;-57
2022/08/12 13:09:12;;;;;;;4.70;2.87;;;;;;;32.81;37.64;101554.88;7398374;19;20404;-57
2022/08/12 13:11:43;;;;;;;4.73;2.63;;;;;;;32.71;36.46;101557.88;7393344;19;20774;-58
2022/08/12 13:14:14;;;;;;;6.60;2.63;;;;;;;32.83;36.93;101551.22;7399533;19;20371;-58
2022/08/12 13:16:59;;;;;;;8.43;2.40;;;;;;;32.95;36.12;101560.56;7393747;19;20844;-58
2022/08/12 13:19:35;;;;;;;5.47;2.83;;;;;;;33.11;35.07;101557.28;7399185;19;20435;-57
2022/08/12 13:22:18;;;;;;;5.70;3.10;;;;;;;33.13;35.12;101558.06;7392632;19;20424;-57
2022/08/12 13:24:49;;;;;;;5.83;2.77;;;;;;;32.77;34.21;101540.78;7398942;19;20394;-57
2022/08/12 13:27:28;;;;;;;4.73;2.40;;;;;;;33.16;34.24;101541.88;7396021;19;20423;-57
2022/08/12 13:30:09;;;;;;;8.10;2.80;;;;;;;33.14;34.63;101538.41;7391064;19;20407;-58
2022/08/12 13:32:43;;;;;;;6.80;4.00;;;;;;;33.44;34.64;101535.38;7398775;19;20402;-58
2022/08/12 13:35:28;;;;;;;6.77;3.73;;;;;;;33.31;35.25;101545.72;7392857;19;20440;-58
2022/08/12 13:38:18;;;;;;;6.87;3.40;;;;;;;33.50;35.58;101548.53;7398527;19;20383;-57
2022/08/12 13:40:57;;;;;;;7.37;2.57;;;;;;;33.72;34.83;101544.91;7390367;19;20913;-58
2022/08/12 13:43:26;;;;;;;3.90;2.23;;;;;;;33.96;33.61;101541.19;7399046;19;20906;-57
2022/08/12 13:46:09;;;;;;;7.60;3.80;;;;;;;33.76;34.31;101542.97;7390168;19;20418;-58
2022/08/12 13:48:42;;;;;;;7.07;3.40;;;;;;;33.97;33.84;101533.09;7397627;19;20399;-58
2022/08/12 13:51:16;;;;;;;9.33;4.27;;;;;;;33.70;35.33;101541.44;7392136;19;20422;-57
2022/08/12 13:53:53;;;;;;;8.33;3.30;;;;;;;33.67;34.06;101530.84;7397406;19;20387;-58
2022/08/12 13:56:33;;;;;;;5.00;2.40;;;;;;;33.67;34.17;101536.22;7392430;19;20433;-57
2022/08/12 13:59:04;;;;;;;14.67;8.03;;;;;;;33.71;33.98;101532.47;7401053;19;20413;-57
2022/08/12 14:01:37;;;;;;;4.00;2.40;;;;;;;33.73;33.61;101530.59;7391975;19;20407;-57